LEVC/VLC METAR and TAF weather

Enter ICAO airport designator
Station Type Date Time Source
LEVC METAR 2018/12/10 13:00 UTC NOAA

LEVC 101300Z 13007KT 100V160 CAVOK 17/11 Q1027 NOSIG


Station Type Date Time Source
LEVC Decoded METAR 2018/12/10 13:00 UTC NOAA

Valencia / Aeropuerto, Spain (LEVC) 39-30N 000-28W 62M
Dec 10, 2018 - 08:00 AM EST / 2018.12.10 1300 UTC
Wind: from the SE (130 degrees) at 8 MPH (7 KT) (direction variable):0
Visibility: greater than 7 mile(s):0
Temperature: 62 F (17 C)
Dew Point: 51 F (11 C)
Relative Humidity: 67%
Pressure (altimeter): 30.33 in. Hg (1027 hPa)
ob: LEVC 101300Z 13007KT 100V160 CAVOK 17/11 Q1027 NOSIG
cycle: 13

Station Type Date Time Source
LEVC TAF 2018/12/10 12:27 UTC NOAA

TAF TAF LEVC 101100Z 1012/1112 28006KT 9999 FEW040 TX19/1012Z TN06/1106Z
TEMPO 1014/1018 11008KT
BECMG 1110/1112 12006KT


Example: see airport list